createdAt,value
2023-04-20T11:05:51.957Z,9.00
2023-04-20T11:08:18.735Z,11.80
2023-04-20T11:13:23.810Z,11.90
2023-04-20T12:05:53.060Z,12.20
2023-04-20T12:15:41.900Z,13.70
2023-04-20T12:20:41.517Z,14.00
2023-04-20T12:23:08.696Z,16.00
2023-04-20T12:25:35.474Z,15.50
2023-04-20T12:28:06.759Z,15.20
2023-04-20T12:30:35.381Z,14.80
2023-04-20T12:33:03.472Z,14.60
2023-04-20T12:35:30.437Z,14.60
2023-04-20T14:50:53.636Z,15.30
2023-04-20T14:53:21.743Z,15.70
2023-04-20T14:55:48.733Z,15.80
2023-04-20T14:58:19.727Z,15.80
2023-04-20T15:00:46.957Z,15.90
2023-04-20T15:03:13.980Z,16.40
2023-04-20T15:05:40.906Z,16.20
2023-04-20T15:08:07.632Z,16.30
2023-04-20T15:10:35.290Z,16.30
2023-04-20T15:13:03.186Z,16.30
2023-04-20T15:15:47.016Z,16.30
2023-04-20T15:18:15.060Z,16.30
2023-04-20T15:20:41.827Z,16.40
2023-04-20T15:23:08.877Z,16.20
2023-04-20T15:25:35.682Z,16.20
2023-04-20T15:28:02.342Z,15.60
2023-04-20T15:30:30.396Z,15.80
2023-04-20T15:33:04.567Z,15.30
2023-04-20T15:35:32.377Z,15.20
2023-04-20T15:37:59.190Z,15.10
2023-04-20T15:40:27.280Z,15.30
2023-04-20T15:42:57.294Z,15.30
2023-04-20T15:45:24.181Z,15.50
2023-04-20T15:47:51.350Z,15.40
2023-04-20T15:50:18.552Z,15.30
2023-04-20T15:52:45.771Z,15.30
2023-04-20T15:55:12.609Z,15.60
2023-04-20T15:57:39.403Z,15.80
2023-04-20T16:00:08.205Z,15.80
2023-04-20T16:02:35.901Z,15.80
2023-04-20T16:05:02.957Z,15.70
2023-04-20T16:07:29.830Z,15.50
2023-04-20T16:09:56.537Z,15.10
2023-04-20T16:12:23.206Z,15.50
2023-04-20T16:14:51.222Z,15.80
2023-04-20T16:17:19.107Z,15.90
2023-04-20T16:19:45.848Z,15.60
2023-04-20T16:22:14.054Z,15.30
2023-04-20T16:24:40.836Z,15.40
2023-04-20T16:27:09.977Z,15.30
2023-04-20T16:29:36.869Z,15.60
2023-04-20T16:32:03.588Z,15.40
2023-04-20T16:34:31.554Z,15.30
2023-04-20T16:36:58.568Z,15.50
2023-04-20T16:39:25.373Z,15.40
2023-04-20T16:41:52.074Z,15.10
2023-04-20T16:44:18.977Z,15.20
2023-04-20T16:46:51.375Z,15.00
2023-04-20T16:49:18.297Z,14.90
2023-04-20T16:51:45.074Z,15.40
2023-04-20T16:54:12.803Z,15.40
2023-04-20T16:56:40.043Z,14.90
2023-04-20T16:59:06.813Z,14.90
2023-04-20T17:01:33.717Z,15.10
2023-04-20T17:04:00.886Z,15.50
2023-04-20T17:06:27.735Z,14.90
2023-04-20T17:08:57.509Z,15.10
2023-04-20T17:11:24.283Z,15.00
2023-04-20T17:13:51.010Z,14.70
2023-04-20T17:16:17.868Z,14.60
2023-04-20T17:18:44.812Z,14.50
2023-04-20T17:21:11.572Z,14.30
2023-04-20T17:23:41.352Z,13.90
2023-04-20T17:26:11.151Z,14.20
2023-04-20T17:28:37.823Z,14.20
2023-04-20T17:31:04.508Z,13.80
2023-04-20T17:33:31.460Z,13.80
2023-04-20T17:35:59.993Z,13.90
2023-04-20T17:38:26.748Z,13.80
2023-04-20T17:40:53.431Z,13.90
2023-04-20T17:43:20.139Z,13.40
2023-04-20T17:45:50.151Z,13.30
2023-04-20T17:48:16.959Z,13.10
2023-04-20T17:50:47.190Z,13.50
2023-04-20T17:53:13.962Z,13.20
2023-04-20T17:55:40.985Z,13.00
2023-04-20T18:00:39.700Z,12.70
2023-04-20T18:03:06.499Z,12.80
2023-04-20T18:05:33.734Z,12.40
2023-04-20T18:08:00.528Z,12.50
2023-04-20T18:10:27.954Z,12.20
2023-04-20T18:12:55.448Z,12.20
2023-04-20T18:15:22.260Z,12.10
2023-04-20T18:17:49.544Z,12.20
2023-04-20T18:20:16.411Z,12.10
2023-04-20T18:22:43.167Z,12.00
2023-04-20T18:25:10.106Z,11.80
2023-04-20T18:27:37.532Z,11.90
2023-04-20T18:30:04.861Z,11.70
2023-04-20T18:32:32.946Z,11.70
2023-04-20T18:35:00.262Z,11.50
